sensor_id;sensor_type;location;lat;lon;timestamp;P1;durP1;ratioP1;P2;durP2;ratioP2
76978;SDS011;65911;47.502;19.148;2023-06-19T00:02:23;5.30;;;3.90;;
76978;SDS011;65911;47.502;19.148;2023-06-19T00:05:25;8.32;;;4.22;;
76978;SDS011;65911;47.502;19.148;2023-06-19T00:08:27;5.47;;;4.30;;
76978;SDS011;65911;47.502;19.148;2023-06-19T00:11:30;5.32;;;4.63;;
76978;SDS011;65911;47.502;19.148;2023-06-19T00:14:32;7.40;;;3.78;;
76978;SDS011;65911;47.502;19.148;2023-06-19T00:17:34;8.43;;;4.80;;
76978;SDS011;65911;47.502;19.148;2023-06-19T00:20:39;5.90;;;4.30;;
76978;SDS011;65911;47.502;19.148;2023-06-19T00:23:41;6.47;;;4.28;;
76978;SDS011;65911;47.502;19.148;2023-06-19T00:26:43;6.57;;;3.97;;
76978;SDS011;65911;47.502;19.148;2023-06-19T00:29:46;5.63;;;4.40;;
76978;SDS011;65911;47.502;19.148;2023-06-19T00:32:48;6.40;;;4.03;;
76978;SDS011;65911;47.502;19.148;2023-06-19T00:35:52;7.38;;;4.93;;
76978;SDS011;65911;47.502;19.148;2023-06-19T00:38:54;6.53;;;4.30;;
76978;SDS011;65911;47.502;19.148;2023-06-19T00:41:56;5.88;;;4.10;;
76978;SDS011;65911;47.502;19.148;2023-06-19T00:44:58;7.93;;;4.45;;
76978;SDS011;65911;47.502;19.148;2023-06-19T00:48:01;5.73;;;3.87;;
76978;SDS011;65911;47.502;19.148;2023-06-19T00:51:03;6.07;;;4.15;;
76978;SDS011;65911;47.502;19.148;2023-06-19T00:54:06;6.70;;;4.70;;
76978;SDS011;65911;47.502;19.148;2023-06-19T00:57:09;5.70;;;4.57;;
76978;SDS011;65911;47.502;19.148;2023-06-19T01:00:11;6.90;;;4.22;;
76978;SDS011;65911;47.502;19.148;2023-06-19T01:03:14;6.03;;;4.20;;
76978;SDS011;65911;47.502;19.148;2023-06-19T01:06:21;6.53;;;4.53;;
76978;SDS011;65911;47.502;19.148;2023-06-19T01:09:28;6.27;;;4.17;;
76978;SDS011;65911;47.502;19.148;2023-06-19T01:12:34;6.05;;;4.25;;
76978;SDS011;65911;47.502;19.148;2023-06-19T01:15:39;5.70;;;4.28;;
76978;SDS011;65911;47.502;19.148;2023-06-19T01:18:43;6.27;;;4.40;;
76978;SDS011;65911;47.502;19.148;2023-06-19T01:21:45;6.05;;;4.15;;
76978;SDS011;65911;47.502;19.148;2023-06-19T01:24:48;6.63;;;4.30;;
76978;SDS011;65911;47.502;19.148;2023-06-19T01:27:50;7.85;;;4.70;;
76978;SDS011;65911;47.502;19.148;2023-06-19T01:30:53;5.90;;;4.43;;
76978;SDS011;65911;47.502;19.148;2023-06-19T01:33:58;5.45;;;4.05;;
76978;SDS011;65911;47.502;19.148;2023-06-19T01:37:01;8.40;;;4.65;;
76978;SDS011;65911;47.502;19.148;2023-06-19T01:40:04;7.53;;;4.50;;
76978;SDS011;65911;47.502;19.148;2023-06-19T01:43:08;8.13;;;4.70;;
76978;SDS011;65911;47.502;19.148;2023-06-19T01:46:11;7.68;;;4.68;;
76978;SDS011;65911;47.502;19.148;2023-06-19T01:49:13;6.00;;;4.77;;
76978;SDS011;65911;47.502;19.148;2023-06-19T01:52:15;7.57;;;4.93;;
76978;SDS011;65911;47.502;19.148;2023-06-19T01:55:19;6.65;;;4.60;;
76978;SDS011;65911;47.502;19.148;2023-06-19T01:58:21;7.07;;;4.97;;
76978;SDS011;65911;47.502;19.148;2023-06-19T02:01:24;6.63;;;5.00;;
76978;SDS011;65911;47.502;19.148;2023-06-19T02:04:26;6.60;;;4.63;;
76978;SDS011;65911;47.502;19.148;2023-06-19T02:07:29;7.45;;;4.82;;
76978;SDS011;65911;47.502;19.148;2023-06-19T02:10:31;5.77;;;4.37;;
76978;SDS011;65911;47.502;19.148;2023-06-19T02:13:33;7.38;;;4.70;;
76978;SDS011;65911;47.502;19.148;2023-06-19T02:16:36;7.90;;;5.15;;
76978;SDS011;65911;47.502;19.148;2023-06-19T02:19:38;9.13;;;5.17;;
76978;SDS011;65911;47.502;19.148;2023-06-19T02:22:40;8.40;;;4.45;;
76978;SDS011;65911;47.502;19.148;2023-06-19T02:25:43;5.85;;;4.85;;
76978;SDS011;65911;47.502;19.148;2023-06-19T02:28:45;8.07;;;5.30;;
76978;SDS011;65911;47.502;19.148;2023-06-19T02:31:47;8.13;;;5.07;;
76978;SDS011;65911;47.502;19.148;2023-06-19T02:34:49;6.38;;;5.10;;
76978;SDS011;65911;47.502;19.148;2023-06-19T02:37:51;7.32;;;5.15;;
76978;SDS011;65911;47.502;19.148;2023-06-19T02:40:54;9.07;;;5.17;;
76978;SDS011;65911;47.502;19.148;2023-06-19T02:43:59;9.52;;;4.65;;
76978;SDS011;65911;47.502;19.148;2023-06-19T02:47:01;7.47;;;4.78;;
76978;SDS011;65911;47.502;19.148;2023-06-19T02:50:04;6.67;;;4.77;;
76978;SDS011;65911;47.502;19.148;2023-06-19T02:53:06;7.43;;;4.70;;
76978;SDS011;65911;47.502;19.148;2023-06-19T02:56:09;7.05;;;5.28;;
76978;SDS011;65911;47.502;19.148;2023-06-19T02:59:13;6.88;;;4.80;;
76978;SDS011;65911;47.502;19.148;2023-06-19T03:02:15;7.88;;;5.63;;
76978;SDS011;65911;47.502;19.148;2023-06-19T03:05:17;7.45;;;5.25;;
76978;SDS011;65911;47.502;19.148;2023-06-19T03:08:19;6.72;;;4.78;;
76978;SDS011;65911;47.502;19.148;2023-06-19T03:11:22;10.80;;;5.50;;
76978;SDS011;65911;47.502;19.148;2023-06-19T03:14:24;8.00;;;5.18;;
76978;SDS011;65911;47.502;19.148;2023-06-19T03:17:26;7.85;;;5.10;;
76978;SDS011;65911;47.502;19.148;2023-06-19T03:20:28;7.60;;;4.43;;
76978;SDS011;65911;47.502;19.148;2023-06-19T03:23:32;7.45;;;4.88;;
76978;SDS011;65911;47.502;19.148;2023-06-19T03:26:34;7.53;;;4.97;;
76978;SDS011;65911;47.502;19.148;2023-06-19T03:29:37;7.60;;;5.28;;
76978;SDS011;65911;47.502;19.148;2023-06-19T03:32:41;6.55;;;4.93;;
76978;SDS011;65911;47.502;19.148;2023-06-19T03:35:51;7.20;;;5.53;;
76978;SDS011;65911;47.502;19.148;2023-06-19T03:39:12;7.40;;;5.53;;
76978;SDS011;65911;47.502;19.148;2023-06-19T03:42:16;6.67;;;5.00;;
76978;SDS011;65911;47.502;19.148;2023-06-19T03:45:19;9.30;;;5.43;;
76978;SDS011;65911;47.502;19.148;2023-06-19T03:48:21;8.18;;;5.72;;
76978;SDS011;65911;47.502;19.148;2023-06-19T03:51:23;8.30;;;5.73;;
76978;SDS011;65911;47.502;19.148;2023-06-19T03:54:25;6.82;;;5.30;;
76978;SDS011;65911;47.502;19.148;2023-06-19T03:57:28;10.80;;;6.00;;
76978;SDS011;65911;47.502;19.148;2023-06-19T04:00:30;9.40;;;5.55;;
76978;SDS011;65911;47.502;19.148;2023-06-19T04:03:33;6.88;;;5.32;;
76978;SDS011;65911;47.502;19.148;2023-06-19T04:06:36;7.82;;;5.40;;
76978;SDS011;65911;47.502;19.148;2023-06-19T04:09:39;6.40;;;4.85;;
76978;SDS011;65911;47.502;19.148;2023-06-19T04:12:41;8.40;;;4.67;;
76978;SDS011;65911;47.502;19.148;2023-06-19T04:15:44;6.22;;;5.43;;
76978;SDS011;65911;47.502;19.148;2023-06-19T04:18:49;6.88;;;4.88;;
76978;SDS011;65911;47.502;19.148;2023-06-19T04:21:51;7.70;;;5.30;;
76978;SDS011;65911;47.502;19.148;2023-06-19T04:24:53;8.23;;;5.32;;
76978;SDS011;65911;47.502;19.148;2023-06-19T04:27:56;5.88;;;4.80;;
76978;SDS011;65911;47.502;19.148;2023-06-19T04:30:58;6.80;;;5.00;;
76978;SDS011;65911;47.502;19.148;2023-06-19T04:34:03;8.55;;;4.80;;
76978;SDS011;65911;47.502;19.148;2023-06-19T04:37:07;9.57;;;5.45;;
76978;SDS011;65911;47.502;19.148;2023-06-19T04:40:09;8.05;;;5.55;;
76978;SDS011;65911;47.502;19.148;2023-06-19T04:43:13;7.23;;;4.90;;
76978;SDS011;65911;47.502;19.148;2023-06-19T04:46:15;7.60;;;5.03;;
76978;SDS011;65911;47.502;19.148;2023-06-19T04:49:22;9.57;;;5.38;;
76978;SDS011;65911;47.502;19.148;2023-06-19T04:52:25;6.23;;;4.97;;
76978;SDS011;65911;47.502;19.148;2023-06-19T04:55:27;9.10;;;5.63;;
76978;SDS011;65911;47.502;19.148;2023-06-19T04:58:30;9.25;;;5.53;;
76978;SDS011;65911;47.502;19.148;2023-06-19T05:01:33;7.25;;;4.82;;
76978;SDS011;65911;47.502;19.148;2023-06-19T05:04:35;7.07;;;4.43;;
76978;SDS011;65911;47.502;19.148;2023-06-19T05:07:38;7.28;;;5.07;;
76978;SDS011;65911;47.502;19.148;2023-06-19T05:10:40;8.57;;;5.50;;
76978;SDS011;65911;47.502;19.148;2023-06-19T05:13:45;8.57;;;5.10;;
76978;SDS011;65911;47.502;19.148;2023-06-19T05:16:48;7.65;;;4.93;;
76978;SDS011;65911;47.502;19.148;2023-06-19T05:19:50;7.18;;;4.90;;
76978;SDS011;65911;47.502;19.148;2023-06-19T05:22:52;8.27;;;5.10;;
76978;SDS011;65911;47.502;19.148;2023-06-19T05:25:54;7.00;;;4.45;;
76978;SDS011;65911;47.502;19.148;2023-06-19T05:28:57;7.97;;;4.72;;
76978;SDS011;65911;47.502;19.148;2023-06-19T05:31:59;8.85;;;5.32;;
76978;SDS011;65911;47.502;19.148;2023-06-19T05:35:01;6.10;;;4.90;;
76978;SDS011;65911;47.502;19.148;2023-06-19T05:38:03;7.57;;;5.07;;
76978;SDS011;65911;47.502;19.148;2023-06-19T05:41:07;5.70;;;4.35;;
76978;SDS011;65911;47.502;19.148;2023-06-19T05:44:10;6.30;;;4.80;;
76978;SDS011;65911;47.502;19.148;2023-06-19T05:47:16;7.22;;;5.05;;
76978;SDS011;65911;47.502;19.148;2023-06-19T05:50:19;6.40;;;4.95;;
76978;SDS011;65911;47.502;19.148;2023-06-19T05:53:21;7.63;;;4.83;;
76978;SDS011;65911;47.502;19.148;2023-06-19T05:56:24;7.53;;;5.15;;
76978;SDS011;65911;47.502;19.148;2023-06-19T05:59:26;6.05;;;5.05;;
76978;SDS011;65911;47.502;19.148;2023-06-19T06:02:28;7.32;;;4.88;;
76978;SDS011;65911;47.502;19.148;2023-06-19T06:05:30;7.00;;;5.25;;
76978;SDS011;65911;47.502;19.148;2023-06-19T06:08:33;8.30;;;5.20;;
76978;SDS011;65911;47.502;19.148;2023-06-19T06:11:35;7.18;;;4.97;;
76978;SDS011;65911;47.502;19.148;2023-06-19T06:14:37;6.80;;;4.80;;
76978;SDS011;65911;47.502;19.148;2023-06-19T06:17:40;6.40;;;5.35;;
76978;SDS011;65911;47.502;19.148;2023-06-19T06:20:42;7.70;;;5.30;;
76978;SDS011;65911;47.502;19.148;2023-06-19T06:23:45;6.97;;;5.40;;
76978;SDS011;65911;47.502;19.148;2023-06-19T06:26:47;8.02;;;5.53;;
76978;SDS011;65911;47.502;19.148;2023-06-19T06:29:50;8.80;;;5.30;;
76978;SDS011;65911;47.502;19.148;2023-06-19T06:32:57;7.80;;;5.25;;
76978;SDS011;65911;47.502;19.148;2023-06-19T06:36:00;6.38;;;5.13;;
76978;SDS011;65911;47.502;19.148;2023-06-19T06:39:02;6.60;;;4.90;;
76978;SDS011;65911;47.502;19.148;2023-06-19T06:42:05;11.32;;;5.32;;
76978;SDS011;65911;47.502;19.148;2023-06-19T06:45:08;7.73;;;4.67;;
76978;SDS011;65911;47.502;19.148;2023-06-19T06:48:10;5.90;;;5.03;;
76978;SDS011;65911;47.502;19.148;2023-06-19T06:51:13;6.28;;;4.32;;
76978;SDS011;65911;47.502;19.148;2023-06-19T06:54:15;7.47;;;4.70;;
76978;SDS011;65911;47.502;19.148;2023-06-19T06:57:17;6.72;;;4.60;;
76978;SDS011;65911;47.502;19.148;2023-06-19T07:00:19;6.25;;;4.78;;
76978;SDS011;65911;47.502;19.148;2023-06-19T07:03:22;6.78;;;4.80;;
76978;SDS011;65911;47.502;19.148;2023-06-19T07:06:24;6.00;;;4.43;;
76978;SDS011;65911;47.502;19.148;2023-06-19T07:09:27;6.18;;;4.88;;
76978;SDS011;65911;47.502;19.148;2023-06-19T07:12:29;7.80;;;4.72;;
76978;SDS011;65911;47.502;19.148;2023-06-19T07:15:31;4.70;;;4.20;;
76978;SDS011;65911;47.502;19.148;2023-06-19T07:18:34;6.95;;;4.50;;
76978;SDS011;65911;47.502;19.148;2023-06-19T07:21:39;8.45;;;4.70;;
76978;SDS011;65911;47.502;19.148;2023-06-19T07:24:42;7.63;;;4.30;;
76978;SDS011;65911;47.502;19.148;2023-06-19T07:27:45;8.50;;;4.63;;
76978;SDS011;65911;47.502;19.148;2023-06-19T07:30:47;9.70;;;3.97;;
76978;SDS011;65911;47.502;19.148;2023-06-19T07:33:49;5.93;;;4.22;;
76978;SDS011;65911;47.502;19.148;2023-06-19T07:36:52;8.90;;;5.05;;
76978;SDS011;65911;47.502;19.148;2023-06-19T07:39:54;9.25;;;4.35;;
76978;SDS011;65911;47.502;19.148;2023-06-19T07:42:57;7.35;;;4.57;;
76978;SDS011;65911;47.502;19.148;2023-06-19T07:46:00;7.17;;;4.13;;
76978;SDS011;65911;47.502;19.148;2023-06-19T07:49:02;6.40;;;3.83;;
76978;SDS011;65911;47.502;19.148;2023-06-19T07:52:04;5.43;;;3.90;;
76978;SDS011;65911;47.502;19.148;2023-06-19T07:55:08;6.77;;;4.20;;
76978;SDS011;65911;47.502;19.148;2023-06-19T07:58:11;6.22;;;4.05;;
76978;SDS011;65911;47.502;19.148;2023-06-19T08:01:13;5.47;;;3.90;;
76978;SDS011;65911;47.502;19.148;2023-06-19T08:04:15;6.97;;;4.25;;
76978;SDS011;65911;47.502;19.148;2023-06-19T08:07:18;7.45;;;4.40;;
76978;SDS011;65911;47.502;19.148;2023-06-19T08:10:20;6.57;;;4.28;;
76978;SDS011;65911;47.502;19.148;2023-06-19T08:13:22;6.05;;;4.05;;
76978;SDS011;65911;47.502;19.148;2023-06-19T08:16:25;8.30;;;3.93;;
76978;SDS011;65911;47.502;19.148;2023-06-19T08:19:28;6.88;;;4.07;;
76978;SDS011;65911;47.502;19.148;2023-06-19T08:22:30;4.38;;;3.38;;
76978;SDS011;65911;47.502;19.148;2023-06-19T08:25:33;5.50;;;3.77;;
76978;SDS011;65911;47.502;19.148;2023-06-19T08:28:35;4.68;;;3.63;;
76978;SDS011;65911;47.502;19.148;2023-06-19T08:31:39;4.70;;;3.72;;
76978;SDS011;65911;47.502;19.148;2023-06-19T08:34:42;6.47;;;3.70;;
76978;SDS011;65911;47.502;19.148;2023-06-19T08:37:44;4.50;;;3.55;;
76978;SDS011;65911;47.502;19.148;2023-06-19T08:40:46;7.22;;;4.00;;
76978;SDS011;65911;47.502;19.148;2023-06-19T08:43:49;5.82;;;4.28;;
76978;SDS011;65911;47.502;19.148;2023-06-19T08:46:54;5.83;;;3.90;;
76978;SDS011;65911;47.502;19.148;2023-06-19T08:49:56;6.18;;;4.05;;
76978;SDS011;65911;47.502;19.148;2023-06-19T08:53:03;4.47;;;3.95;;
76978;SDS011;65911;47.502;19.148;2023-06-19T08:56:05;7.00;;;3.80;;
76978;SDS011;65911;47.502;19.148;2023-06-19T08:59:08;7.18;;;4.00;;
76978;SDS011;65911;47.502;19.148;2023-06-19T09:02:11;5.32;;;4.63;;
76978;SDS011;65911;47.502;19.148;2023-06-19T09:05:14;9.73;;;4.15;;
76978;SDS011;65911;47.502;19.148;2023-06-19T09:08:19;5.40;;;4.25;;
76978;SDS011;65911;47.502;19.148;2023-06-19T09:11:24;4.82;;;3.80;;
76978;SDS011;65911;47.502;19.148;2023-06-19T09:14:40;11.07;;;4.57;;
76978;SDS011;65911;47.502;19.148;2023-06-19T09:17:43;6.07;;;4.13;;
76978;SDS011;65911;47.502;19.148;2023-06-19T09:20:54;5.22;;;4.18;;
76978;SDS011;65911;47.502;19.148;2023-06-19T09:24:06;5.18;;;4.20;;
76978;SDS011;65911;47.502;19.148;2023-06-19T09:27:11;6.33;;;4.00;;
76978;SDS011;65911;47.502;19.148;2023-06-19T09:30:19;6.65;;;4.28;;
76978;SDS011;65911;47.502;19.148;2023-06-19T09:33:29;4.95;;;3.72;;
76978;SDS011;65911;47.502;19.148;2023-06-19T09:36:32;7.22;;;4.57;;
76978;SDS011;65911;47.502;19.148;2023-06-19T09:39:39;4.35;;;3.83;;
76978;SDS011;65911;47.502;19.148;2023-06-19T09:42:45;4.72;;;3.90;;
76978;SDS011;65911;47.502;19.148;2023-06-19T09:45:56;6.95;;;4.22;;
76978;SDS011;65911;47.502;19.148;2023-06-19T09:49:00;5.00;;;3.77;;
76978;SDS011;65911;47.502;19.148;2023-06-19T09:52:03;4.35;;;3.63;;
76978;SDS011;65911;47.502;19.148;2023-06-19T09:55:06;4.53;;;4.00;;
76978;SDS011;65911;47.502;19.148;2023-06-19T09:58:10;4.70;;;3.90;;
76978;SDS011;65911;47.502;19.148;2023-06-19T10:01:12;7.95;;;4.07;;
76978;SDS011;65911;47.502;19.148;2023-06-19T10:04:15;4.65;;;3.75;;
76978;SDS011;65911;47.502;19.148;2023-06-19T10:07:36;5.05;;;3.75;;
76978;SDS011;65911;47.502;19.148;2023-06-19T10:10:46;5.90;;;4.10;;
76978;SDS011;65911;47.502;19.148;2023-06-19T10:13:50;5.28;;;3.97;;
76978;SDS011;65911;47.502;19.148;2023-06-19T10:16:52;6.60;;;3.90;;
76978;SDS011;65911;47.502;19.148;2023-06-19T10:19:55;4.73;;;3.33;;
76978;SDS011;65911;47.502;19.148;2023-06-19T10:26:15;5.93;;;4.10;;
76978;SDS011;65911;47.502;19.148;2023-06-19T10:29:17;4.82;;;3.80;;
76978;SDS011;65911;47.502;19.148;2023-06-19T10:32:28;4.15;;;3.53;;
76978;SDS011;65911;47.502;19.148;2023-06-19T10:35:37;4.90;;;3.65;;
76978;SDS011;65911;47.502;19.148;2023-06-19T10:38:42;5.22;;;3.63;;
76978;SDS011;65911;47.502;19.148;2023-06-19T10:41:49;4.93;;;3.63;;
76978;SDS011;65911;47.502;19.148;2023-06-19T10:44:51;5.15;;;3.75;;
76978;SDS011;65911;47.502;19.148;2023-06-19T10:48:02;6.50;;;3.60;;
76978;SDS011;65911;47.502;19.148;2023-06-19T10:51:05;6.32;;;3.90;;
76978;SDS011;65911;47.502;19.148;2023-06-19T10:54:07;5.43;;;3.47;;
76978;SDS011;65911;47.502;19.148;2023-06-19T10:57:10;5.45;;;3.63;;
76978;SDS011;65911;47.502;19.148;2023-06-19T11:00:21;4.97;;;3.88;;
76978;SDS011;65911;47.502;19.148;2023-06-19T11:03:28;4.95;;;3.60;;
76978;SDS011;65911;47.502;19.148;2023-06-19T11:06:31;4.68;;;2.97;;
76978;SDS011;65911;47.502;19.148;2023-06-19T11:09:34;4.07;;;3.33;;
76978;SDS011;65911;47.502;19.148;2023-06-19T11:12:36;4.57;;;3.60;;
76978;SDS011;65911;47.502;19.148;2023-06-19T11:15:38;7.03;;;3.47;;
76978;SDS011;65911;47.502;19.148;2023-06-19T11:18:40;5.47;;;3.70;;
76978;SDS011;65911;47.502;19.148;2023-06-19T11:21:45;5.10;;;3.97;;
76978;SDS011;65911;47.502;19.148;2023-06-19T11:24:48;5.72;;;3.90;;
76978;SDS011;65911;47.502;19.148;2023-06-19T11:27:56;4.10;;;3.53;;
76978;SDS011;65911;47.502;19.148;2023-06-19T11:31:00;4.35;;;3.72;;
76978;SDS011;65911;47.502;19.148;2023-06-19T11:34:05;6.55;;;4.05;;
76978;SDS011;65911;47.502;19.148;2023-06-19T11:37:11;5.33;;;3.60;;
76978;SDS011;65911;47.502;19.148;2023-06-19T11:40:15;4.65;;;3.38;;
76978;SDS011;65911;47.502;19.148;2023-06-19T11:43:57;3.92;;;3.53;;
76978;SDS011;65911;47.502;19.148;2023-06-19T11:46:48;5.43;;;3.57;;
76978;SDS011;65911;47.502;19.148;2023-06-19T11:49:50;4.53;;;3.60;;
76978;SDS011;65911;47.502;19.148;2023-06-19T11:52:53;4.65;;;4.00;;
76978;SDS011;65911;47.502;19.148;2023-06-19T11:55:55;6.50;;;3.95;;
76978;SDS011;65911;47.502;19.148;2023-06-19T11:58:57;5.28;;;3.70;;
76978;SDS011;65911;47.502;19.148;2023-06-19T12:01:59;4.50;;;3.80;;
76978;SDS011;65911;47.502;19.148;2023-06-19T12:05:02;4.53;;;4.00;;
76978;SDS011;65911;47.502;19.148;2023-06-19T12:08:04;5.27;;;3.50;;
76978;SDS011;65911;47.502;19.148;2023-06-19T12:11:11;4.05;;;3.50;;
76978;SDS011;65911;47.502;19.148;2023-06-19T12:14:15;4.53;;;3.42;;
76978;SDS011;65911;47.502;19.148;2023-06-19T12:17:17;5.43;;;3.80;;
76978;SDS011;65911;47.502;19.148;2023-06-19T12:20:19;4.63;;;3.40;;
76978;SDS011;65911;47.502;19.148;2023-06-19T12:23:22;5.10;;;3.78;;
76978;SDS011;65911;47.502;19.148;2023-06-19T12:26:24;4.93;;;3.42;;
76978;SDS011;65911;47.502;19.148;2023-06-19T12:29:27;5.22;;;3.33;;
76978;SDS011;65911;47.502;19.148;2023-06-19T12:32:29;5.22;;;3.80;;
76978;SDS011;65911;47.502;19.148;2023-06-19T12:35:31;6.90;;;4.10;;
76978;SDS011;65911;47.502;19.148;2023-06-19T12:38:34;9.97;;;4.23;;
76978;SDS011;65911;47.502;19.148;2023-06-19T12:41:39;6.45;;;3.90;;
76978;SDS011;65911;47.502;19.148;2023-06-19T12:44:41;5.88;;;4.00;;
76978;SDS011;65911;47.502;19.148;2023-06-19T12:47:44;7.13;;;3.95;;
76978;SDS011;65911;47.502;19.148;2023-06-19T12:50:46;6.97;;;4.28;;
76978;SDS011;65911;47.502;19.148;2023-06-19T12:53:48;5.75;;;4.25;;
76978;SDS011;65911;47.502;19.148;2023-06-19T12:56:50;6.25;;;4.10;;
76978;SDS011;65911;47.502;19.148;2023-06-19T12:59:52;6.80;;;3.83;;
76978;SDS011;65911;47.502;19.148;2023-06-19T13:02:55;4.47;;;3.70;;
76978;SDS011;65911;47.502;19.148;2023-06-19T13:05:58;8.20;;;3.50;;
76978;SDS011;65911;47.502;19.148;2023-06-19T13:09:00;4.67;;;3.73;;
76978;SDS011;65911;47.502;19.148;2023-06-19T13:12:06;6.18;;;4.00;;
76978;SDS011;65911;47.502;19.148;2023-06-19T13:15:08;7.18;;;3.83;;
76978;SDS011;65911;47.502;19.148;2023-06-19T13:18:11;5.32;;;4.07;;
76978;SDS011;65911;47.502;19.148;2023-06-19T13:21:13;5.88;;;3.72;;
76978;SDS011;65911;47.502;19.148;2023-06-19T13:24:17;4.68;;;3.92;;
76978;SDS011;65911;47.502;19.148;2023-06-19T13:27:19;7.03;;;4.38;;
76978;SDS011;65911;47.502;19.148;2023-06-19T13:30:21;4.97;;;3.53;;
76978;SDS011;65911;47.502;19.148;2023-06-19T13:33:24;6.85;;;3.90;;
76978;SDS011;65911;47.502;19.148;2023-06-19T13:36:26;11.40;;;4.40;;
76978;SDS011;65911;47.502;19.148;2023-06-19T13:39:29;5.30;;;4.03;;
76978;SDS011;65911;47.502;19.148;2023-06-19T13:42:33;6.70;;;3.72;;
76978;SDS011;65911;47.502;19.148;2023-06-19T13:45:37;5.22;;;3.55;;
76978;SDS011;65911;47.502;19.148;2023-06-19T13:48:40;5.18;;;3.45;;
76978;SDS011;65911;47.502;19.148;2023-06-19T13:51:42;6.63;;;3.90;;
76978;SDS011;65911;47.502;19.148;2023-06-19T13:54:46;5.68;;;3.17;;
76978;SDS011;65911;47.502;19.148;2023-06-19T13:57:48;6.93;;;3.65;;
76978;SDS011;65911;47.502;19.148;2023-06-19T14:00:50;5.20;;;4.10;;
76978;SDS011;65911;47.502;19.148;2023-06-19T14:03:53;7.05;;;4.25;;
76978;SDS011;65911;47.502;19.148;2023-06-19T14:06:55;6.53;;;4.53;;
76978;SDS011;65911;47.502;19.148;2023-06-19T14:09:58;4.18;;;3.72;;
76978;SDS011;65911;47.502;19.148;2023-06-19T14:13:00;5.23;;;3.73;;
76978;SDS011;65911;47.502;19.148;2023-06-19T14:16:02;6.32;;;4.13;;
76978;SDS011;65911;47.502;19.148;2023-06-19T14:19:04;5.43;;;3.92;;
76978;SDS011;65911;47.502;19.148;2023-06-19T14:22:07;5.63;;;4.15;;
76978;SDS011;65911;47.502;19.148;2023-06-19T14:25:09;5.47;;;3.97;;
76978;SDS011;65911;47.502;19.148;2023-06-19T14:28:11;5.20;;;3.50;;
76978;SDS011;65911;47.502;19.148;2023-06-19T14:31:15;5.78;;;4.43;;
76978;SDS011;65911;47.502;19.148;2023-06-19T14:34:21;5.20;;;4.07;;
76978;SDS011;65911;47.502;19.148;2023-06-19T14:37:23;6.70;;;4.10;;
76978;SDS011;65911;47.502;19.148;2023-06-19T14:40:25;5.43;;;4.00;;
76978;SDS011;65911;47.502;19.148;2023-06-19T14:43:28;5.30;;;3.90;;
76978;SDS011;65911;47.502;19.148;2023-06-19T14:46:34;5.60;;;3.85;;
76978;SDS011;65911;47.502;19.148;2023-06-19T14:49:41;5.50;;;4.37;;
76978;SDS011;65911;47.502;19.148;2023-06-19T14:52:44;4.80;;;4.25;;
76978;SDS011;65911;47.502;19.148;2023-06-19T14:55:46;5.50;;;4.28;;
76978;SDS011;65911;47.502;19.148;2023-06-19T14:58:48;6.07;;;4.47;;
76978;SDS011;65911;47.502;19.148;2023-06-19T15:01:51;5.07;;;4.20;;
76978;SDS011;65911;47.502;19.148;2023-06-19T15:04:53;5.90;;;4.50;;
76978;SDS011;65911;47.502;19.148;2023-06-19T15:08:07;5.93;;;4.00;;
76978;SDS011;65911;47.502;19.148;2023-06-19T15:11:11;5.47;;;4.60;;
76978;SDS011;65911;47.502;19.148;2023-06-19T15:14:13;7.07;;;4.23;;
76978;SDS011;65911;47.502;19.148;2023-06-19T15:17:15;5.93;;;4.40;;
76978;SDS011;65911;47.502;19.148;2023-06-19T15:20:18;4.97;;;4.05;;
76978;SDS011;65911;47.502;19.148;2023-06-19T15:23:22;5.05;;;3.90;;
76978;SDS011;65911;47.502;19.148;2023-06-19T15:26:24;4.37;;;3.97;;
76978;SDS011;65911;47.502;19.148;2023-06-19T15:29:27;6.38;;;4.13;;
76978;SDS011;65911;47.502;19.148;2023-06-19T15:32:30;6.80;;;4.13;;
76978;SDS011;65911;47.502;19.148;2023-06-19T15:35:32;6.38;;;3.92;;
76978;SDS011;65911;47.502;19.148;2023-06-19T15:38:34;5.70;;;4.47;;
76978;SDS011;65911;47.502;19.148;2023-06-19T15:41:37;4.90;;;4.40;;
76978;SDS011;65911;47.502;19.148;2023-06-19T15:44:39;6.68;;;4.20;;
76978;SDS011;65911;47.502;19.148;2023-06-19T15:47:41;10.77;;;4.10;;
76978;SDS011;65911;47.502;19.148;2023-06-19T15:50:44;6.00;;;3.20;;
76978;SDS011;65911;47.502;19.148;2023-06-19T15:53:46;7.88;;;4.20;;
76978;SDS011;65911;47.502;19.148;2023-06-19T15:56:48;6.30;;;4.22;;
76978;SDS011;65911;47.502;19.148;2023-06-19T15:59:51;5.00;;;4.20;;
76978;SDS011;65911;47.502;19.148;2023-06-19T16:02:54;5.17;;;4.33;;
76978;SDS011;65911;47.502;19.148;2023-06-19T16:05:57;5.60;;;3.90;;
76978;SDS011;65911;47.502;19.148;2023-06-19T16:09:09;7.00;;;3.80;;
76978;SDS011;65911;47.502;19.148;2023-06-19T16:12:11;6.10;;;4.47;;
76978;SDS011;65911;47.502;19.148;2023-06-19T16:15:13;7.80;;;4.40;;
76978;SDS011;65911;47.502;19.148;2023-06-19T16:18:17;7.28;;;4.22;;
76978;SDS011;65911;47.502;19.148;2023-06-19T16:21:20;6.07;;;4.10;;
76978;SDS011;65911;47.502;19.148;2023-06-19T16:24:22;4.33;;;3.93;;
76978;SDS011;65911;47.502;19.148;2023-06-19T16:27:24;6.47;;;4.20;;
76978;SDS011;65911;47.502;19.148;2023-06-19T16:30:27;7.32;;;4.32;;
76978;SDS011;65911;47.502;19.148;2023-06-19T16:33:30;5.67;;;4.23;;
76978;SDS011;65911;47.502;19.148;2023-06-19T16:36:32;5.77;;;4.17;;
76978;SDS011;65911;47.502;19.148;2023-06-19T16:39:34;6.22;;;4.28;;
76978;SDS011;65911;47.502;19.148;2023-06-19T16:42:37;5.03;;;3.90;;
76978;SDS011;65911;47.502;19.148;2023-06-19T16:45:39;5.80;;;3.87;;
76978;SDS011;65911;47.502;19.148;2023-06-19T16:48:41;7.38;;;3.85;;
76978;SDS011;65911;47.502;19.148;2023-06-19T16:51:44;5.30;;;4.53;;
76978;SDS011;65911;47.502;19.148;2023-06-19T16:54:47;5.65;;;4.03;;
76978;SDS011;65911;47.502;19.148;2023-06-19T16:57:50;5.83;;;4.40;;
76978;SDS011;65911;47.502;19.148;2023-06-19T17:00:52;5.50;;;4.10;;
76978;SDS011;65911;47.502;19.148;2023-06-19T17:03:55;4.70;;;4.15;;
76978;SDS011;65911;47.502;19.148;2023-06-19T17:06:57;5.82;;;4.13;;
76978;SDS011;65911;47.502;19.148;2023-06-19T17:10:01;8.40;;;4.23;;
76978;SDS011;65911;47.502;19.148;2023-06-19T17:13:04;4.85;;;3.65;;
76978;SDS011;65911;47.502;19.148;2023-06-19T17:16:06;6.65;;;4.30;;
76978;SDS011;65911;47.502;19.148;2023-06-19T17:19:09;5.33;;;4.13;;
76978;SDS011;65911;47.502;19.148;2023-06-19T17:22:11;7.22;;;4.32;;
76978;SDS011;65911;47.502;19.148;2023-06-19T17:25:13;4.50;;;4.10;;
76978;SDS011;65911;47.502;19.148;2023-06-19T17:28:16;5.95;;;3.95;;
76978;SDS011;65911;47.502;19.148;2023-06-19T17:31:18;5.17;;;4.20;;
76978;SDS011;65911;47.502;19.148;2023-06-19T17:34:20;4.85;;;4.22;;
76978;SDS011;65911;47.502;19.148;2023-06-19T17:37:22;5.10;;;4.57;;
76978;SDS011;65911;47.502;19.148;2023-06-19T17:40:25;4.78;;;3.67;;
76978;SDS011;65911;47.502;19.148;2023-06-19T17:43:28;8.43;;;4.40;;
76978;SDS011;65911;47.502;19.148;2023-06-19T17:46:30;5.70;;;4.20;;
76978;SDS011;65911;47.502;19.148;2023-06-19T17:49:32;5.47;;;4.50;;
76978;SDS011;65911;47.502;19.148;2023-06-19T17:52:34;7.13;;;4.20;;
76978;SDS011;65911;47.502;19.148;2023-06-19T17:55:37;5.57;;;4.13;;
76978;SDS011;65911;47.502;19.148;2023-06-19T17:58:39;7.00;;;4.57;;
76978;SDS011;65911;47.502;19.148;2023-06-19T18:01:41;6.70;;;4.25;;
76978;SDS011;65911;47.502;19.148;2023-06-19T18:04:43;6.73;;;4.40;;
76978;SDS011;65911;47.502;19.148;2023-06-19T18:07:46;8.57;;;5.38;;
76978;SDS011;65911;47.502;19.148;2023-06-19T18:10:50;8.57;;;5.18;;